Gaz Palmyra — 3FCO4 — position and weather

sailwx.info

Track history (hours):
 
Tides and Currents Weather Stations Pressure Air Temp Water Temp Dewpoint Dewpoint Depression Visibility Wind Speed Wind Dir Waves Ship Positions

Gaz Palmyra

Last reported at 2015-Jan-15 00:27 UTC. Time now 2015-Jan-29 14:24 UTC.
Position N 35°55' W 000°08'.
Warning: this ship's position is 14 days out of date.

Length 137 m; draft 5.8 m.

Type: Ship (hazmat cat C). MMSI: 353247000.

Date/timePositionNaut miles runAvg speedWind from/ knotsBaromVisibWave heightAir tempDewpointWater temp
2015-Jan-15 00:27N 35°55' W 000°08'8 9.3
2015-Jan-14 23:33N 35°49' W 000°15'13 0.6
2015-Jan-14 02:19N 36°02' W 000°12'0 0.1
2015-Jan-14 01:19N 36°02' W 000°12'3010.9
2015-Jan-13 22:33N 36°20' E 000°18'2811.8
2015-Jan-13 20:13N 36°37' E 000°45'4611.4
2015-Jan-13 16:10N 36°48' E 001°40'711.8
2015-Jan-13 15:33N 36°48' E 001°50'3611.9
2015-Jan-13 12:33N 36°51' E 002°34'1111.3
2015-Jan-13 11:33N 36°52' E 002°48'  
2015-Jan-05 01:19N 36°20' E 000°19'  
Track history (hours):
 
Tides and Currents Weather Stations Pressure Air Temp Water Temp Dewpoint Dewpoint Depression Visibility Wind Speed Wind Dir Waves Ship Positions

Gaz Palmyra

Last reported at 2015-Jan-15 00:27 UTC. Time now 2015-Jan-29 14:24 UTC.
Position N 35°55' W 000°08'.
Warning: this ship's position is 14 days out of date.

Length 137 m; draft 5.8 m.

Type: Ship (hazmat cat C). MMSI: 353247000.

Date/timePositionNaut miles runAvg speedWind from/ knotsBaromVisibWave heightAir tempDewpointWater temp
2015-Jan-15 00:27N 35°55' W 000°08'8 9.3
2015-Jan-14 23:33N 35°49' W 000°15'13 0.6
2015-Jan-14 02:19N 36°02' W 000°12'0 0.1
2015-Jan-14 01:19N 36°02' W 000°12'3010.9
2015-Jan-13 22:33N 36°20' E 000°18'2811.8
2015-Jan-13 20:13N 36°37' E 000°45'4611.4
2015-Jan-13 16:10N 36°48' E 001°40'711.8
2015-Jan-13 15:33N 36°48' E 001°50'3611.9
2015-Jan-13 12:33N 36°51' E 002°34'1111.3
2015-Jan-13 11:33N 36°52' E 002°48'  
2015-Jan-05 01:19N 36°20' E 000°19'  

Dump ship's entire track history